Time;durP1;ratioP1;P1;durP2;ratioP2;P2;SDS_P1;SDS_P2;PMS_P1;PMS_P2;Temp;Humidity;BMP_temperature;BMP_pressure;BME280_temperature;BME280_humidity;BME280_pressure;Samples;Min_cycle;Max_cycle;Signal;HPM_P1;HPM_P2
2023/08/19 00:01:34;;;;;;;21.35;19.45;;;22.30;99.90;;;;;;6156972;23;20021;-88
2023/08/19 00:04:00;;;;;;;22.40;20.30;;;22.30;99.90;;;;;;6132561;23;20020;-88
2023/08/19 00:06:39;;;;;;;22.25;20.35;;;22.30;99.90;;;;;;6156622;23;20009;-88
2023/08/19 00:09:07;;;;;;;22.60;20.50;;;22.30;99.90;;;;;;6131541;23;20342;-89
2023/08/19 00:11:34;;;;;;;21.90;19.80;;;22.30;99.90;;;;;;6131548;23;20009;-88
2023/08/19 00:14:00;;;;;;;20.98;19.15;;;22.30;99.90;;;;;;6131826;23;20020;-88
2023/08/19 00:16:26;;;;;;;21.48;19.48;;;22.30;99.90;;;;;;6157029;23;20009;-88
2023/08/19 00:18:52;;;;;;;21.55;19.55;;;22.40;99.90;;;;;;6132239;23;20009;-88
2023/08/19 00:21:17;;;;;;;22.35;20.13;;;22.40;99.90;;;;;;6134186;23;20446;-88
2023/08/19 00:23:43;;;;;;;21.88;19.88;;;22.30;99.90;;;;;;6159077;23;20463;-88
2023/08/19 00:26:11;;;;;;;20.98;19.08;;;22.30;99.90;;;;;;6158455;23;20013;-88
2023/08/19 00:28:40;;;;;;;21.02;19.02;;;22.30;99.90;;;;;;6158221;23;20059;-89
2023/08/19 00:31:06;;;;;;;21.95;20.00;;;22.30;99.90;;;;;;6133951;23;20104;-88
2023/08/19 00:33:32;;;;;;;22.23;20.20;;;22.30;99.90;;;;;;6134285;23;20093;-88
2023/08/19 00:35:59;;;;;;;21.55;19.60;;;22.30;99.90;;;;;;6185328;23;20388;-88
2023/08/19 00:38:24;;;;;;;24.55;22.38;;;22.40;99.90;;;;;;6134288;23;20466;-88
2023/08/19 00:40:50;;;;;;;23.52;21.30;;;22.40;99.90;;;;;;6134871;23;20013;-88
2023/08/19 00:43:16;;;;;;;22.65;20.33;;;22.30;99.90;;;;;;6158169;23;20013;-88
2023/08/19 00:45:46;;;;;;;21.33;19.23;;;22.30;99.90;;;;;;6158609;23;20471;-88
2023/08/19 00:48:15;;;;;;;21.25;19.35;;;22.30;99.90;;;;;;6157978;23;20006;-88
2023/08/19 00:50:42;;;;;;;21.35;19.35;;;22.30;99.90;;;;;;6158848;23;20013;-88
2023/08/19 00:53:09;;;;;;;22.45;20.45;;;22.30;99.90;;;;;;6133066;23;20021;-88
2023/08/19 00:55:36;;;;;;;21.23;19.33;;;22.30;99.90;;;;;;6133857;23;20096;-88
2023/08/19 00:58:07;;;;;;;21.27;19.27;;;22.30;99.90;;;;;;6158246;23;20009;-87
2023/08/19 01:00:34;;;;;;;21.53;19.50;;;22.30;99.90;;;;;;6159325;23;20044;-87
2023/08/19 01:03:00;;;;;;;22.10;20.00;;;22.20;99.90;;;;;;6133870;23;20264;-87
2023/08/19 01:05:38;;;;;;;20.65;18.63;;;22.30;99.90;;;;;;6134295;23;20101;-88
2023/08/19 01:08:09;;;;;;;22.00;19.80;;;22.30;99.90;;;;;;6133029;23;20005;-87
2023/08/19 01:10:41;;;;;;;21.27;19.27;;;22.20;99.90;;;;;;6184652;23;20447;-87
2023/08/19 01:13:17;;;;;;;21.27;19.13;;;22.20;99.90;;;;;;6157756;23;20017;-87
2023/08/19 01:15:52;;;;;;;21.48;19.33;;;22.20;99.90;;;;;;6133058;23;20024;-88
2023/08/19 01:18:18;;;;;;;22.00;19.90;;;22.20;99.90;;;;;;6133763;23;20016;-87
2023/08/19 01:20:44;;;;;;;21.23;19.20;;;22.20;99.90;;;;;;6158499;23;20013;-87
2023/08/19 01:23:14;;;;;;;21.45;19.50;;;22.20;99.90;;;;;;6158888;23;20328;-88
2023/08/19 01:25:42;;;;;;;20.77;18.75;;;22.20;99.90;;;;;;6158329;23;20016;-87
2023/08/19 01:28:08;;;;;;;20.83;18.70;;;22.20;99.90;;;;;;6133042;23;20020;-88
2023/08/19 01:30:34;;;;;;;19.92;18.08;;;22.20;99.90;;;;;;6133177;23;20009;-88
2023/08/19 01:33:02;;;;;;;20.55;18.52;;;22.10;99.90;;;;;;6157160;23;20017;-88
2023/08/19 01:35:30;;;;;;;20.58;18.67;;;22.10;99.90;;;;;;6157555;23;20013;-88
2023/08/19 01:38:02;;;;;;;20.27;18.38;;;22.10;99.90;;;;;;6158520;23;20606;-88
2023/08/19 01:40:28;;;;;;;20.40;18.42;;;22.10;99.90;;;;;;6134209;23;20096;-88
2023/08/19 01:42:54;;;;;;;21.23;19.23;;;22.10;99.90;;;;;;6158102;23;20501;-88
2023/08/19 01:45:21;;;;;;;21.48;19.38;;;22.10;99.90;;;;;;6158132;23;20447;-87
2023/08/19 01:47:53;;;;;;;22.02;20.00;;;22.10;99.90;;;;;;6156803;23;20446;-88
2023/08/19 01:50:18;;;;;;;20.05;18.15;;;22.10;99.90;;;;;;6183893;23;20013;-87
2023/08/19 01:52:44;;;;;;;20.95;19.05;;;22.00;99.90;;;;;;6157582;23;20405;-88
2023/08/19 01:55:10;;;;;;;19.65;17.80;;;22.00;99.90;;;;;;6133860;23;20005;-88
2023/08/19 01:57:35;;;;;;;19.40;17.48;;;22.00;99.90;;;;;;6157985;23;20051;-88
2023/08/19 02:00:01;;;;;;;20.20;18.33;;;22.00;99.90;;;;;;6184891;23;20084;-88
2023/08/19 02:02:26;;;;;;;20.92;18.90;;;22.00;99.90;;;;;;6157617;23;20013;-88
2023/08/19 02:04:52;;;;;;;21.23;19.05;;;22.00;99.90;;;;;;6133471;23;20009;-88
2023/08/19 02:07:18;;;;;;;20.75;18.65;;;22.00;99.90;;;;;;6133062;23;20016;-88
2023/08/19 02:09:44;;;;;;;21.20;19.05;;;22.00;99.90;;;;;;6132734;23;20394;-88
2023/08/19 02:12:09;;;;;;;21.15;18.98;;;22.00;99.90;;;;;;6157515;23;20443;-87
2023/08/19 02:14:35;;;;;;;21.13;18.95;;;21.90;99.90;;;;;;6133375;23;20100;-87
2023/08/19 02:17:01;;;;;;;19.73;17.83;;;21.90;99.90;;;;;;6159099;23;20011;-87
2023/08/19 02:19:26;;;;;;;21.75;19.75;;;21.90;99.90;;;;;;6159753;23;20068;-88
2023/08/19 02:21:52;;;;;;;20.85;18.70;;;21.90;99.90;;;;;;6159742;23;20371;-88
2023/08/19 02:24:18;;;;;;;20.80;18.80;;;21.90;99.90;;;;;;6159868;23;20455;-88
2023/08/19 02:26:43;;;;;;;19.88;17.98;;;21.90;99.90;;;;;;6134730;23;20005;-88
2023/08/19 02:29:09;;;;;;;20.65;18.55;;;21.90;99.90;;;;;;6134762;23;20398;-88
2023/08/19 02:31:36;;;;;;;20.27;18.27;;;21.90;99.90;;;;;;6158841;23;20027;-88
2023/08/19 02:34:02;;;;;;;21.20;19.20;;;21.90;99.90;;;;;;6157629;23;20477;-88
2023/08/19 02:36:27;;;;;;;21.25;18.92;;;21.90;99.90;;;;;;6133161;23;20088;-88
2023/08/19 02:38:53;;;;;;;20.35;18.23;;;21.90;99.90;;;;;;6184707;23;20071;-88
2023/08/19 02:41:18;;;;;;;21.52;19.23;;;21.90;99.90;;;;;;6158139;23;20096;-88
2023/08/19 02:43:44;;;;;;;19.45;17.35;;;21.90;99.90;;;;;;6184604;23;20009;-88
2023/08/19 02:46:10;;;;;;;19.42;17.42;;;21.90;99.90;;;;;;6132939;23;20332;-88
2023/08/19 02:48:35;;;;;;;20.25;18.15;;;21.80;99.90;;;;;;6132074;23;20013;-88
2023/08/19 02:51:01;;;;;;;21.13;18.92;;;21.80;99.90;;;;;;6132216;23;20005;-88
2023/08/19 02:53:28;;;;;;;19.92;17.83;;;21.80;99.90;;;;;;6156133;23;20466;-87
2023/08/19 02:55:54;;;;;;;19.88;17.88;;;21.80;99.90;;;;;;6132567;23;20017;-87
2023/08/19 02:58:20;;;;;;;21.30;18.73;;;21.80;99.90;;;;;;6157390;23;20480;-88
2023/08/19 03:00:49;;;;;;;21.73;19.58;;;21.80;99.90;;;;;;6157792;23;20067;-88
2023/08/19 03:03:15;;;;;;;19.40;17.45;;;21.80;99.90;;;;;;6157938;23;20021;-88
2023/08/19 03:05:41;;;;;;;19.55;17.67;;;21.80;99.90;;;;;;6157831;23;20032;-88
2023/08/19 03:08:08;;;;;;;19.38;17.58;;;21.80;99.90;;;;;;6157127;23;20013;-88
2023/08/19 03:10:36;;;;;;;19.80;17.92;;;21.80;99.90;;;;;;6132045;23;20013;-88
2023/08/19 03:13:06;;;;;;;20.10;18.00;;;21.80;99.90;;;;;;6156931;23;20020;-88
2023/08/19 03:15:33;;;;;;;19.27;17.23;;;21.80;99.90;;;;;;6157158;23;20013;-88
2023/08/19 03:17:59;;;;;;;21.05;17.90;;;21.80;99.90;;;;;;6132988;23;20009;-88
2023/08/19 03:20:24;;;;;;;17.55;15.65;;;21.80;99.90;;;;;;6133518;23;20013;-88
2023/08/19 03:22:50;;;;;;;18.48;16.58;;;21.80;99.90;;;;;;6157078;23;20039;-88
2023/08/19 03:25:16;;;;;;;19.98;17.95;;;21.80;99.90;;;;;;6132646;23;20009;-88
2023/08/19 03:27:42;;;;;;;19.63;17.40;;;21.80;99.90;;;;;;6132576;23;20028;-88
2023/08/19 03:30:08;;;;;;;19.02;17.02;;;21.80;99.90;;;;;;6156680;23;20021;-88
2023/08/19 03:32:33;;;;;;;18.58;16.63;;;21.70;99.90;;;;;;6132689;23;20020;-88
2023/08/19 03:34:59;;;;;;;18.58;16.67;;;21.70;99.90;;;;;;6156882;23;20040;-88
2023/08/19 03:37:25;;;;;;;19.92;16.50;;;21.70;99.90;;;;;;6156748;23;20024;-88
2023/08/19 03:39:51;;;;;;;17.70;15.95;;;21.70;99.90;;;;;;6132546;23;20013;-88
2023/08/19 03:42:17;;;;;;;17.65;15.75;;;21.70;99.90;;;;;;6133001;23;20009;-88
2023/08/19 03:44:43;;;;;;;17.15;15.50;;;21.70;99.90;;;;;;6157108;23;20147;-88
2023/08/19 03:47:13;;;;;;;18.30;16.45;;;21.70;99.90;;;;;;6132212;23;20053;-88
2023/08/19 03:49:39;;;;;;;18.27;16.48;;;21.70;99.90;;;;;;6131801;23;20012;-88
2023/08/19 03:52:08;;;;;;;17.77;15.82;;;21.70;99.90;;;;;;6156505;23;20015;-88
2023/08/19 03:54:34;;;;;;;17.83;15.85;;;21.60;99.90;;;;;;6156696;23;20069;-88
2023/08/19 03:57:01;;;;;;;16.95;15.25;;;21.60;99.90;;;;;;6158608;23;20020;-88
2023/08/19 03:59:27;;;;;;;17.45;15.65;;;21.60;99.90;;;;;;6158337;23;20021;-88
2023/08/19 04:01:52;;;;;;;17.70;15.80;;;21.60;99.90;;;;;;6134612;23;20013;-88
2023/08/19 04:04:18;;;;;;;17.48;15.60;;;21.60;99.90;;;;;;6159205;23;20016;-88
2023/08/19 04:06:44;;;;;;;18.75;15.85;;;21.60;99.90;;;;;;6133619;23;20016;-88
2023/08/19 04:09:09;;;;;;;17.85;16.05;;;21.60;99.90;;;;;;6157967;23;20008;-88
2023/08/19 04:11:37;;;;;;;16.85;15.05;;;21.60;99.90;;;;;;6132862;23;20016;-88
2023/08/19 04:14:03;;;;;;;16.60;14.75;;;21.60;99.90;;;;;;6157714;23;20092;-88
2023/08/19 04:16:28;;;;;;;17.40;15.60;;;21.50;99.90;;;;;;6133960;23;20059;-87
2023/08/19 04:18:54;;;;;;;18.75;15.82;;;21.50;99.90;;;;;;6134550;23;20347;-88
2023/08/19 04:21:20;;;;;;;17.05;13.85;;;21.50;99.90;;;;;;6158995;23;20091;-88
2023/08/19 04:23:45;;;;;;;16.80;14.40;;;21.50;99.90;;;;;;6158838;23;20095;-88
2023/08/19 04:26:11;;;;;;;16.77;15.07;;;21.50;99.90;;;;;;6133795;23;20427;-88
2023/08/19 04:28:37;;;;;;;17.20;14.95;;;21.50;99.90;;;;;;6158402;23;20009;-88
2023/08/19 04:31:04;;;;;;;15.88;14.32;;;21.50;99.90;;;;;;6133395;23;20108;-88
2023/08/19 04:33:30;;;;;;;15.80;14.20;;;21.50;99.90;;;;;;6158674;23;20017;-88
2023/08/19 04:35:56;;;;;;;18.55;15.77;;;21.50;99.90;;;;;;6133437;23;20044;-88
2023/08/19 04:38:22;;;;;;;17.25;15.45;;;21.50;99.90;;;;;;6157834;23;20024;-88
2023/08/19 04:40:47;;;;;;;15.70;13.90;;;21.50;99.90;;;;;;6134564;23;20023;-88
2023/08/19 04:43:13;;;;;;;16.02;13.68;;;21.50;99.90;;;;;;6158345;23;20020;-88
2023/08/19 04:45:38;;;;;;;15.77;14.05;;;21.50;99.90;;;;;;6134105;23;20100;-88
2023/08/19 04:48:07;;;;;;;16.40;13.88;;;21.50;99.90;;;;;;6133982;23;20013;-88
2023/08/19 04:50:33;;;;;;;15.00;13.10;;;21.50;99.90;;;;;;6133346;23;20019;-88
2023/08/19 04:52:59;;;;;;;15.50;13.10;;;21.50;99.90;;;;;;6158386;23;20077;-88
2023/08/19 04:55:26;;;;;;;14.90;13.18;;;21.60;99.90;;;;;;6133207;23;20020;-88
2023/08/19 04:57:51;;;;;;;15.07;13.27;;;21.60;99.90;;;;;;6157468;23;20096;-88
2023/08/19 05:00:17;;;;;;;16.48;12.43;;;21.60;99.90;;;;;;6134195;23;20529;-88
2023/08/19 05:02:43;;;;;;;15.95;13.48;;;21.60;99.90;;;;;;6133796;23;20032;-88
2023/08/19 05:05:08;;;;;;;14.60;12.77;;;21.70;99.90;;;;;;6158787;23;20038;-89
2023/08/19 05:07:34;;;;;;;14.20;12.57;;;21.70;99.90;;;;;;6132849;23;20092;-88
2023/08/19 05:10:00;;;;;;;15.88;12.18;;;21.70;99.90;;;;;;6157872;23;20013;-88
2023/08/19 05:12:25;;;;;;;15.90;12.60;;;21.70;99.90;;;;;;6158731;23;20013;-88
2023/08/19 05:14:52;;;;;;;15.45;12.77;;;21.70;99.90;;;;;;6157454;23;20013;-89
2023/08/19 05:17:18;;;;;;;14.15;11.55;;;21.80;99.90;;;;;;6133282;23;20031;-88
2023/08/19 05:19:44;;;;;;;15.38;11.10;;;21.80;99.90;;;;;;6158138;23;20013;-88
2023/08/19 05:22:10;;;;;;;13.57;11.75;;;21.80;99.90;;;;;;6134325;23;20017;-88
2023/08/19 05:24:36;;;;;;;15.45;11.88;;;21.80;99.90;;;;;;6158653;23;20016;-88
2023/08/19 05:27:02;;;;;;;14.55;11.70;;;21.80;99.90;;;;;;6133414;23;20005;-88
2023/08/19 05:29:28;;;;;;;14.13;11.52;;;21.80;99.90;;;;;;6158558;23;20013;-89
2023/08/19 05:31:54;;;;;;;15.27;11.60;;;21.80;99.90;;;;;;6156994;23;20009;-88
2023/08/19 05:34:20;;;;;;;13.38;10.70;;;21.90;99.90;;;;;;6157970;23;20020;-88
2023/08/19 05:36:46;;;;;;;13.50;10.82;;;21.90;99.90;;;;;;6158333;23;20028;-88
2023/08/19 05:39:11;;;;;;;12.38;10.55;;;21.90;99.90;;;;;;6184744;23;20013;-88
2023/08/19 05:41:37;;;;;;;13.57;10.50;;;21.90;99.90;;;;;;6158740;23;20044;-88
2023/08/19 05:44:03;;;;;;;12.93;11.23;;;21.90;99.90;;;;;;6158425;23;20048;-88
2023/08/19 05:46:29;;;;;;;13.75;10.40;;;21.90;99.90;;;;;;6133006;23;20013;-88
2023/08/19 05:48:54;;;;;;;11.88;9.63;;;21.90;99.90;;;;;;6157659;23;20013;-88
2023/08/19 05:51:20;;;;;;;13.18;10.45;;;21.90;99.90;;;;;;6184213;23;20040;-88
2023/08/19 05:53:46;;;;;;;12.75;10.20;;;21.90;99.90;;;;;;6132910;23;20083;-88
2023/08/19 05:56:11;;;;;;;14.30;9.82;;;21.90;99.90;;;;;;6157950;23;20512;-88
2023/08/19 05:58:38;;;;;;;12.73;10.05;;;22.00;99.90;;;;;;6157651;23;20466;-89
2023/08/19 06:01:06;;;;;;;14.30;9.93;;;22.00;99.90;;;;;;6158758;23;20013;-88
2023/08/19 06:03:32;;;;;;;13.63;9.68;;;22.00;99.90;;;;;;6133257;23;20448;-88
2023/08/19 06:06:03;;;;;;;12.00;9.55;;;22.00;99.90;;;;;;6133550;23;20666;-88
2023/08/19 06:08:29;;;;;;;12.80;10.32;;;22.00;99.90;;;;;;6156832;23;20037;-88
2023/08/19 06:11:06;;;;;;;12.50;10.13;;;22.00;99.90;;;;;;6132706;23;20063;-88
2023/08/19 06:13:36;;;;;;;11.90;9.55;;;22.10;99.90;;;;;;6157400;23;20446;-88
2023/08/19 06:16:03;;;;;;;12.43;9.27;;;22.10;99.90;;;;;;6133151;23;20084;-88
2023/08/19 06:18:29;;;;;;;12.82;9.88;;;22.10;99.90;;;;;;6156699;23;20009;-89
2023/08/19 06:20:56;;;;;;;13.73;9.80;;;22.10;99.90;;;;;;6158410;23;20017;-88
2023/08/19 06:23:22;;;;;;;13.48;9.73;;;22.20;99.90;;;;;;6133553;23;20021;-88
2023/08/19 06:25:49;;;;;;;14.60;9.63;;;22.20;99.90;;;;;;6158148;23;20009;-88
2023/08/19 06:28:15;;;;;;;12.38;9.57;;;22.20;99.90;;;;;;6157465;23;20020;-88
2023/08/19 06:30:41;;;;;;;12.95;9.13;;;22.20;99.90;;;;;;6158077;23;20013;-88
2023/08/19 06:33:08;;;;;;;13.10;9.57;;;22.20;99.90;;;;;;6132913;23;20017;-89
2023/08/19 06:35:34;;;;;;;11.98;8.52;;;22.30;99.90;;;;;;6132923;23;20036;-89
2023/08/19 06:38:14;;;;;;;10.77;9.15;;;22.30;99.90;;;;;;6156683;23;20446;-88
2023/08/19 06:40:52;;;;;;;12.02;8.38;;;22.30;99.90;;;;;;6150525;23;20096;-88
2023/08/19 06:43:19;;;;;;;13.88;9.45;;;22.40;99.90;;;;;;6125347;23;20116;-88
2023/08/19 06:45:47;;;;;;;12.40;8.20;;;22.40;99.90;;;;;;6100760;23;20009;-88
2023/08/19 06:48:15;;;;;;;12.13;8.95;;;22.40;99.90;;;;;;6126211;23;20013;-89
2023/08/19 06:50:41;;;;;;;10.85;8.63;;;22.40;99.90;;;;;;6101351;23;20470;-88
2023/08/19 06:53:10;;;;;;;10.25;8.23;;;22.40;99.90;;;;;;6125728;23;20021;-89
2023/08/19 06:55:41;;;;;;;12.55;8.82;;;22.50;99.90;;;;;;6125596;23;20067;-89
2023/08/19 06:58:16;;;;;;;12.95;8.57;;;22.50;99.90;;;;;;6126038;23;20021;-88
2023/08/19 07:00:44;;;;;;;12.82;8.98;;;22.50;99.90;;;;;;6102183;23;20013;-89
2023/08/19 07:03:12;;;;;;;14.23;9.07;;;22.50;99.90;;;;;;6126908;23;20018;-89
2023/08/19 07:05:39;;;;;;;11.43;8.13;;;22.60;99.90;;;;;;6099954;23;20913;-89
2023/08/19 07:08:09;;;;;;;11.98;8.30;;;22.50;99.90;;;;;;6121953;23;20048;-90
2023/08/19 07:10:35;;;;;;;11.52;8.13;;;22.60;99.90;;;;;;6124294;23;20072;-89
2023/08/19 07:13:01;;;;;;;11.52;8.40;;;22.60;99.90;;;;;;6153672;23;20029;-89
2023/08/19 07:15:27;;;;;;;11.80;7.97;;;22.60;99.90;;;;;;6153915;23;20096;-89
2023/08/19 07:17:57;;;;;;;13.13;8.55;;;22.60;99.90;;;;;;6182080;23;20013;-89
2023/08/19 07:20:23;;;;;;;12.50;8.23;;;22.70;99.90;;;;;;6132163;23;20411;-89
2023/08/19 07:22:52;;;;;;;10.63;7.35;;;22.70;99.90;;;;;;6157141;23;20040;-88
2023/08/19 07:25:19;;;;;;;11.13;8.02;;;22.70;99.90;;;;;;6157062;23;20016;-89
2023/08/19 07:27:45;;;;;;;11.27;8.00;;;22.70;99.90;;;;;;6157203;23;20388;-89
2023/08/19 07:30:12;;;;;;;12.57;7.45;;;22.70;99.90;;;;;;6156977;23;20324;-89
2023/08/19 07:32:38;;;;;;;10.00;6.82;;;22.70;99.90;;;;;;6132241;23;20010;-89
2023/08/19 07:35:05;;;;;;;13.63;7.32;;;22.80;99.90;;;;;;6183400;23;20467;-89
2023/08/19 07:37:32;;;;;;;12.30;7.63;;;22.80;99.90;;;;;;6132471;23;20443;-89
2023/08/19 07:39:59;;;;;;;12.57;7.40;;;22.80;99.90;;;;;;6156778;23;20027;-89
2023/08/19 07:42:27;;;;;;;9.95;7.75;;;22.80;99.90;;;;;;6158044;23;20013;-89
2023/08/19 07:44:53;;;;;;;12.60;7.53;;;22.90;99.90;;;;;;6132047;23;20048;-89
2023/08/19 07:47:19;;;;;;;10.20;6.78;;;22.90;99.90;;;;;;6154865;23;20013;-89
2023/08/19 07:49:44;;;;;;;10.68;7.28;;;23.00;99.90;;;;;;6156867;23;20016;-89
2023/08/19 07:52:10;;;;;;;10.93;7.55;;;23.00;99.90;;;;;;6132157;23;20011;-89
2023/08/19 07:54:36;;;;;;;10.60;7.10;;;23.00;99.90;;;;;;6131833;23;20083;-89
2023/08/19 07:57:02;;;;;;;10.70;6.47;;;23.10;99.90;;;;;;6157130;23;20530;-89
2023/08/19 07:59:28;;;;;;;9.60;6.88;;;23.10;99.90;;;;;;6131767;23;20009;-89
2023/08/19 08:01:57;;;;;;;10.07;7.03;;;23.20;99.90;;;;;;6157508;23;20139;-89
2023/08/19 08:04:22;;;;;;;9.23;6.40;;;23.20;99.90;;;;;;6157530;23;20459;-90
2023/08/19 08:06:52;;;;;;;10.63;7.10;;;23.30;99.90;;;;;;6132633;23;20013;-90
2023/08/19 08:09:18;;;;;;;10.57;6.88;;;23.40;99.90;;;;;;6132119;23;20462;-90
2023/08/19 08:11:45;;;;;;;10.43;6.82;;;23.50;99.90;;;;;;6132102;23;20009;-89
2023/08/19 08:14:11;;;;;;;11.55;7.22;;;23.50;99.90;;;;;;6132009;23;20115;-90
2023/08/19 08:16:37;;;;;;;10.10;6.60;;;23.60;99.90;;;;;;6157059;23;20013;-89
2023/08/19 08:19:03;;;;;;;10.25;7.05;;;23.60;99.90;;;;;;6156976;23;20013;-89
2023/08/19 08:21:29;;;;;;;12.38;6.95;;;23.70;99.90;;;;;;6157851;23;20017;-89
2023/08/19 08:23:54;;;;;;;12.98;8.07;;;23.70;99.90;;;;;;6157659;23;20017;-90
2023/08/19 08:26:22;;;;;;;11.85;7.32;;;23.80;99.90;;;;;;6132880;23;20019;-90
2023/08/19 08:28:49;;;;;;;12.02;7.07;;;23.90;99.90;;;;;;6132080;23;20024;-89
2023/08/19 08:31:15;;;;;;;12.10;6.57;;;23.90;99.90;;;;;;6131940;23;20088;-90
2023/08/19 08:33:45;;;;;;;10.15;6.68;;;24.00;99.90;;;;;;6132073;23;20059;-89
2023/08/19 08:36:11;;;;;;;10.85;7.13;;;24.00;99.90;;;;;;6156465;23;20009;-89
2023/08/19 08:38:37;;;;;;;9.75;6.40;;;24.10;99.90;;;;;;6182899;23;20013;-89
2023/08/19 08:41:08;;;;;;;11.32;6.63;;;24.20;99.90;;;;;;6157949;23;20143;-89
2023/08/19 08:43:34;;;;;;;10.75;6.80;;;24.20;99.90;;;;;;6134105;23;20351;-89
2023/08/19 08:46:06;;;;;;;9.77;6.68;;;24.30;99.90;;;;;;6159420;23;20147;-89
2023/08/19 08:48:32;;;;;;;;;;;24.40;99.90;;;;;;6159356;23;20017;-89
2023/08/19 08:51:04;;;;;;;10.77;6.65;;;24.40;99.90;;;;;;6133497;23;20260;-89
2023/08/19 08:53:33;;;;;;;13.60;6.57;;;24.40;99.90;;;;;;6134055;23;20021;-90
2023/08/19 08:56:00;;;;;;;10.40;6.45;;;24.50;99.90;;;;;;6133533;23;20470;-89
2023/08/19 08:58:31;;;;;;;9.73;6.50;;;24.60;99.90;;;;;;6184657;23;20092;-89
2023/08/19 09:01:03;;;;;;;11.45;6.15;;;24.70;99.90;;;;;;6133773;23;20013;-90
2023/08/19 09:03:39;;;;;;;10.98;6.13;;;24.80;99.90;;;;;;6134157;23;20052;-89
2023/08/19 09:06:12;;;;;;;9.65;5.47;;;24.80;99.90;;;;;;6133693;23;20067;-90
2023/08/19 09:09:03;;;;;;;10.25;5.90;;;24.90;99.90;;;;;;6157626;23;20020;-90
2023/08/19 09:11:33;;;;;;;8.98;5.80;;;24.90;99.90;;;;;;6157930;23;20013;-89
2023/08/19 09:14:25;;;;;;;10.43;5.45;;;25.00;99.90;;;;;;6157373;23;20619;-90
2023/08/19 09:16:59;;;;;;;8.40;5.28;;;25.00;99.90;;;;;;6157366;23;20536;-90
2023/08/19 09:19:27;;;;;;;9.40;5.03;;;25.00;99.90;;;;;;6133405;23;20410;-89
2023/08/19 09:21:57;;;;;;;10.07;5.88;;;25.00;99.90;;;;;;6158652;23;20013;-90
2023/08/19 09:24:23;;;;;;;9.57;5.40;;;25.10;99.90;;;;;;6133460;23;20096;-90
2023/08/19 09:26:56;;;;;;;10.43;5.57;;;25.20;99.90;;;;;;6158452;23;20051;-90
2023/08/19 09:29:23;;;;;;;9.88;5.78;;;25.20;99.90;;;;;;6158200;23;20009;-90
2023/08/19 09:31:55;;;;;;;11.02;5.35;;;25.30;99.90;;;;;;6133207;23;20017;-90
2023/08/19 09:34:26;;;;;;;9.35;5.72;;;25.30;99.90;;;;;;6133035;23;20028;-90
2023/08/19 09:36:59;;;;;;;9.75;5.32;;;25.30;99.90;;;;;;6133216;23;20021;-89
2023/08/19 09:39:32;;;;;;;;;;;25.40;99.90;;;;;;6132501;23;20036;-89
2023/08/19 09:42:01;;;;;;;10.00;6.00;;;25.40;99.90;;;;;;6157032;23;20431;-90
2023/08/19 09:44:30;;;;;;;8.88;5.15;;;25.40;99.90;;;;;;6157880;23;20017;-90
2023/08/19 09:47:00;;;;;;;9.23;5.35;;;25.50;99.90;;;;;;6157815;23;20020;-88
2023/08/19 09:49:26;;;;;;;10.48;5.70;;;25.60;99.90;;;;;;6158189;23;20073;-88
2023/08/19 09:51:56;;;;;;;10.07;5.97;;;25.70;99.90;;;;;;6157065;23;20048;-89
2023/08/19 09:54:24;;;;;;;10.70;6.18;;;25.80;99.90;;;;;;6133413;23;20053;-89
2023/08/19 09:57:01;;;;;;;9.13;6.07;;;25.90;99.90;;;;;;6157408;23;20049;-88
2023/08/19 09:59:26;;;;;;;9.82;5.82;;;25.90;99.90;;;;;;6157612;23;20020;-89
2023/08/19 10:01:53;;;;;;;9.32;6.15;;;26.00;99.90;;;;;;6157905;23;20051;-88
2023/08/19 10:04:22;;;;;;;11.65;5.80;;;26.10;99.90;;;;;;6157140;23;20024;-88
2023/08/19 10:06:51;;;;;;;;;;;26.20;99.90;;;;;;6158999;23;20017;-88
2023/08/19 10:09:24;;;;;;;10.63;5.45;;;26.20;99.90;;;;;;6153515;23;19900;-89
2023/08/19 10:11:54;;;;;;;10.65;5.43;;;26.30;99.90;;;;;;6168592;23;20024;-88
2023/08/19 10:14:31;;;;;;;9.38;5.68;;;26.40;99.90;;;;;;6185361;23;20476;-88
2023/08/19 10:17:05;;;;;;;10.75;5.95;;;26.50;99.90;;;;;;6158630;23;20489;-89
2023/08/19 10:19:50;;;;;;;9.90;6.05;;;26.50;99.90;;;;;;6157920;23;20455;-90
2023/08/19 10:22:18;;;;;;;12.88;6.30;;;26.60;99.90;;;;;;6158629;23;20029;-89
2023/08/19 10:24:48;;;;;;;13.07;6.13;;;26.60;99.90;;;;;;6158500;23;20055;-90
2023/08/19 10:27:18;;;;;;;11.35;6.03;;;26.70;99.90;;;;;;6184833;23;20017;-89
2023/08/19 10:29:58;;;;;;;12.35;6.18;;;26.70;99.90;;;;;;6158454;23;20013;-89
2023/08/19 10:32:32;;;;;;;12.88;6.10;;;26.80;99.90;;;;;;6133136;23;20013;-89
2023/08/19 10:35:09;;;;;;;9.98;5.78;;;26.80;99.90;;;;;;6132142;23;20017;-90
2023/08/19 10:37:40;;;;;;;13.32;6.30;;;26.80;99.90;;;;;;6156621;23;20515;-89
2023/08/19 10:40:08;;;;;;;11.75;6.20;;;26.80;99.90;;;;;;6131982;23;20534;-89
2023/08/19 10:42:35;;;;;;;11.27;5.78;;;26.80;99.90;;;;;;6157517;23;20017;-89
2023/08/19 10:45:01;;;;;;;13.88;6.28;;;26.70;99.90;;;;;;6157958;23;20073;-89
2023/08/19 10:47:30;;;;;;;11.38;6.72;;;26.70;99.90;;;;;;6132693;23;20055;-90
2023/08/19 10:50:04;;;;;;;11.88;6.78;;;26.60;99.90;;;;;;6157489;23;20028;-90
2023/08/19 10:52:32;;;;;;;14.40;7.05;;;26.50;99.90;;;;;;6131478;23;20013;-90
2023/08/19 10:55:01;;;;;;;13.73;7.43;;;26.40;99.90;;;;;;6156167;23;20017;-90
2023/08/19 10:57:38;;;;;;;11.23;7.22;;;26.40;99.90;;;;;;6156685;23;20021;-90
2023/08/19 11:00:07;;;;;;;11.00;6.65;;;26.30;99.90;;;;;;6132005;23;20064;-89
2023/08/19 11:02:43;;;;;;;12.38;7.20;;;26.30;99.90;;;;;;6131505;23;20362;-89
2023/08/19 11:05:23;;;;;;;12.93;8.20;;;26.30;99.90;;;;;;6156600;23;20020;-89
2023/08/19 11:07:52;;;;;;;12.00;8.27;;;26.20;99.90;;;;;;6132307;23;20021;-89
2023/08/19 11:10:19;;;;;;;14.70;8.85;;;26.10;99.90;;;;;;6157433;23;20017;-88
2023/08/19 11:12:48;;;;;;;14.90;9.32;;;26.10;99.90;;;;;;6157226;23;20017;-89
2023/08/19 11:15:21;;;;;;;12.50;8.38;;;26.10;99.90;;;;;;6157075;23;20073;-89
2023/08/19 11:17:48;;;;;;;13.50;9.20;;;26.00;99.90;;;;;;6156825;23;20021;-89
2023/08/19 11:20:15;;;;;;;12.10;8.70;;;26.00;99.90;;;;;;6132618;23;20017;-88
2023/08/19 11:22:42;;;;;;;10.77;8.23;;;26.10;99.90;;;;;;6132120;23;20447;-89
2023/08/19 11:25:09;;;;;;;15.20;10.10;;;26.10;99.90;;;;;;6157824;23;20040;-89
2023/08/19 11:27:37;;;;;;;12.73;8.98;;;26.10;99.90;;;;;;6156922;23;20017;-89
2023/08/19 11:30:06;;;;;;;14.13;9.02;;;26.20;99.90;;;;;;6130970;23;20074;-89
2023/08/19 11:32:32;;;;;;;14.02;10.38;;;26.20;99.90;;;;;;6156746;23;20017;-89
2023/08/19 11:34:57;;;;;;;14.50;9.70;;;26.30;99.90;;;;;;6132604;23;20020;-89
2023/08/19 11:37:23;;;;;;;12.35;9.77;;;26.40;99.90;;;;;;6132279;23;20455;-90
2023/08/19 11:39:51;;;;;;;14.88;10.88;;;26.40;99.90;;;;;;6182282;23;20080;-90
2023/08/19 11:42:18;;;;;;;14.15;10.45;;;26.50;99.90;;;;;;6156962;23;20017;-90
2023/08/19 11:44:47;;;;;;;12.82;10.13;;;26.60;99.90;;;;;;6132811;23;20039;-90
2023/08/19 11:47:14;;;;;;;12.85;10.25;;;26.60;99.90;;;;;;6157079;23;20017;-90
2023/08/19 11:49:46;;;;;;;13.23;10.35;;;26.70;99.90;;;;;;6132207;23;20468;-89
2023/08/19 11:52:19;;;;;;;;;;;26.80;99.90;;;;;;6132526;23;20009;-90
2023/08/19 11:55:03;;;;;;;14.10;10.80;;;26.70;99.90;;;;;;6131491;23;20365;-90
2023/08/19 11:57:40;;;;;;;16.02;12.07;;;26.80;99.90;;;;;;6131341;23;20052;-90
2023/08/19 12:00:30;;;;;;;15.25;12.55;;;27.10;99.90;;;;;;6131831;23;20616;-90
2023/08/19 12:03:06;;;;;;;18.63;12.90;;;27.30;99.90;;;;;;6157228;23;20017;-90
2023/08/19 12:09:07;;;;;;;17.35;14.07;;;27.80;99.90;;;;;;6182727;23;20052;-89
2023/08/19 12:11:38;;;;;;;16.25;13.50;;;27.80;99.90;;;;;;6156747;23;20017;-89
2023/08/19 12:14:15;;;;;;;15.82;13.27;;;27.80;99.90;;;;;;6132609;23;20045;-89
2023/08/19 12:16:52;;;;;;;16.50;13.93;;;27.80;99.90;;;;;;6134166;23;20052;-89
2023/08/19 12:19:30;;;;;;;18.00;14.32;;;27.80;99.90;;;;;;6133848;23;20493;-89
2023/08/19 12:22:08;;;;;;;18.30;14.05;;;27.70;99.90;;;;;;6157934;23;20009;-89
2023/08/19 12:24:47;;;;;;;16.63;14.80;;;27.60;99.90;;;;;;6134274;23;20021;-89
2023/08/19 12:27:22;;;;;;;19.05;14.18;;;27.60;99.90;;;;;;6132468;23;20017;-89
2023/08/19 12:29:59;;;;;;;19.13;14.85;;;27.50;99.90;;;;;;6134987;23;20009;-90
2023/08/19 12:32:34;;;;;;;17.75;14.30;;;27.40;99.90;;;;;;6133091;23;20329;-90
2023/08/19 12:35:13;;;;;;;16.88;15.00;;;27.40;99.90;;;;;;6157223;23;20012;-90
2023/08/19 12:37:42;;;;;;;18.45;16.52;;;27.30;99.90;;;;;;6133195;23;20075;-89
2023/08/19 12:40:09;;;;;;;19.60;17.60;;;27.30;99.90;;;;;;6132287;23;20017;-90
2023/08/19 12:42:36;;;;;;;20.58;18.45;;;27.30;99.90;;;;;;6133796;23;20017;-89